Time;durP1;ratioP1;P1;durP2;ratioP2;P2;SDS_P1;SDS_P2;PMS_P1;PMS_P2;Temp;Humidity;BMP_temperature;BMP_pressure;BME280_temperature;BME280_humidity;BME280_pressure;Samples;Min_cycle;Max_cycle;Signal;HPM_P1;HPM_P2
2022/05/22 00:04:43;;;;;;;7.93;3.50;;;;;;;12.22;67.28;100145.13;30857820;28;97603;-75
2022/05/22 00:19:43;;;;;;;9.77;3.90;;;;;;;12.14;67.73;100151.41;30856239;28;97219;-78
2022/05/22 00:34:43;;;;;;;6.97;4.07;;;;;;;12.16;67.50;100147.53;30856729;28;97004;-74
2022/05/22 00:49:45;;;;;;;6.55;3.63;;;;;;;12.21;67.19;100138.16;30854471;28;105129;-75
2022/05/22 01:04:49;;;;;;;8.57;4.10;;;;;;;11.98;67.33;100139.84;30853010;28;97546;-74
2022/05/22 01:19:55;;;;;;;6.70;3.67;;;;;;;11.56;69.37;100149.16;30852061;28;97117;-73
2022/05/22 01:34:55;;;;;;;6.33;4.10;;;;;;;11.17;71.65;100148.25;30864638;28;97410;-73
2022/05/22 01:49:55;;;;;;;6.15;3.92;;;;;;;11.04;71.59;100131.16;30870880;28;96699;-75
2022/05/22 02:04:56;;;;;;;7.22;4.43;;;;;;;10.97;71.71;100133.69;30870094;28;107653;-77
2022/05/22 02:19:57;;;;;;;7.03;3.70;;;;;;;11.00;72.01;100123.53;30868949;28;97066;-77
2022/05/22 02:34:57;;;;;;;5.75;3.60;;;;;;;11.15;71.99;100122.75;30865100;28;97115;-76
2022/05/22 02:49:57;;;;;;;5.45;3.40;;;;;;;10.91;72.51;100118.41;30864139;28;96661;-73
2022/05/22 03:04:58;;;;;;;8.40;3.90;;;;;;;10.71;73.33;100120.66;30861252;28;115445;-74
2022/05/22 03:19:58;;;;;;;8.93;3.50;;;;;;;10.96;73.75;100118.69;30860601;28;111912;-73
2022/05/22 03:35:00;;;;;;;9.07;3.80;;;;;;;11.11;72.29;100122.28;30857497;28;96696;-73
2022/05/22 03:50:04;;;;;;;5.13;3.47;;;;;;;11.26;71.49;100121.53;30856189;28;96774;-72
2022/05/22 04:05:08;;;;;;;4.70;2.83;;;;;;;11.45;69.80;100123.72;30856083;28;96727;-72
2022/05/22 04:20:09;;;;;;;7.77;2.97;;;;;;;11.81;67.78;100115.13;30858406;28;96671;-72
2022/05/22 04:35:11;;;;;;;7.13;2.43;;;;;;;12.11;66.00;100109.03;30853135;28;97471;-72
2022/05/22 04:50:13;;;;;;;6.35;3.35;;;;;;;12.35;65.51;100110.63;30852581;28;96862;-76
2022/05/22 05:05:14;;;;;;;8.13;2.87;;;;;;;12.85;64.23;100106.34;30860354;28;96700;-72
2022/05/22 05:20:18;;;;;;;4.75;2.40;;;;;;;14.09;59.43;100117.03;30871396;28;96791;-73
2022/05/22 05:35:18;;;;;;;6.27;2.10;;;;;;;14.78;56.29;100118.91;30870233;28;96839;-75
2022/05/22 05:50:22;;;;;;;5.82;1.65;;;;;;;15.47;55.15;100121.56;30868056;28;97171;-73
2022/05/22 06:05:22;;;;;;;4.27;1.50;;;;;;;15.86;52.27;100128.88;30865510;28;96735;-73
2022/05/22 06:20:23;;;;;;;3.88;1.38;;;;;;;16.15;50.87;100142.91;30863810;28;96958;-75
2022/05/22 06:35:23;;;;;;;2.42;1.02;;;;;;;16.36;48.39;100138.31;30862430;28;96800;-72
2022/05/22 06:50:25;;;;;;;3.05;1.10;;;;;;;16.38;47.76;100150.53;30860496;28;97626;-79
2022/05/22 07:05:26;;;;;;;5.40;1.53;;;;;;;16.92;46.94;100140.50;30860057;28;96803;-72
2022/05/22 07:20:27;;;;;;;5.57;1.20;;;;;;;17.18;44.90;100143.25;30858764;28;97488;-73
2022/05/22 07:35:27;;;;;;;3.55;0.88;;;;;;;17.85;42.48;100143.66;30855831;28;96791;-77
2022/05/22 07:50:28;;;;;;;3.75;1.10;;;;;;;18.10;41.39;100130.19;30855217;28;103478;-74
2022/05/22 08:05:28;;;;;;;3.65;0.88;;;;;;;18.69;40.60;100110.09;30855148;28;96783;-76
2022/05/22 08:20:33;;;;;;;2.47;0.90;;;;;;;18.92;39.63;100098.66;30855332;28;97626;-79
2022/05/22 08:35:36;;;;;;;2.17;0.77;;;;;;;19.55;39.38;100091.91;30856338;28;96728;-77
2022/05/22 08:50:37;;;;;;;1.13;0.50;;;;;;;18.14;40.60;100092.00;30873594;28;96836;-74
2022/05/22 09:05:37;;;;;;;2.57;0.70;;;;;;;19.78;37.78;100093.00;30872171;28;97304;-76
2022/05/22 09:20:49;;;;;;;3.28;0.60;;;;;;;20.55;35.89;100073.09;30871500;28;97387;-74
2022/05/22 09:35:58;;;;;;;1.50;0.40;;;;;;;20.17;35.79;100082.56;30873198;28;97684;-73
2022/05/22 09:51:10;;;;;;;0.60;0.50;;;;;;;21.02;33.99;100068.63;30867923;28;97191;-74
2022/05/22 10:06:38;;;;;;;1.87;0.80;;;;;;;20.00;36.23;100079.78;30867206;28;96681;-74
2022/05/22 10:21:53;;;;;;;3.97;0.67;;;;;;;20.35;36.07;100089.72;30864641;28;96785;-73
2022/05/22 10:37:02;;;;;;;1.07;0.50;;;;;;;20.35;36.65;100100.53;30864022;28;96731;-74
2022/05/22 10:52:05;;;;;;;1.90;0.70;;;;;;;21.21;34.68;100107.16;30861630;28;97936;-75
2022/05/22 11:07:07;;;;;;;1.43;0.63;;;;;;;20.71;35.93;100108.63;30861439;28;97190;-77
2022/05/22 11:22:31;;;;;;;5.23;0.90;;;;;;;20.83;35.96;100085.06;30859394;28;97307;-79
2022/05/22 11:37:56;;;;;;;3.37;0.67;;;;;;;23.23;32.56;100077.22;30859306;28;98041;-75
2022/05/22 11:53:30;;;;;;;3.83;1.33;;;;;;;24.06;31.31;100083.31;30856223;28;97621;-77
2022/05/22 12:08:52;;;;;;;2.17;0.70;;;;;;;25.02;28.76;100064.16;30855645;28;96959;-77
2022/05/22 12:24:15;;;;;;;4.17;0.60;;;;;;;24.38;29.48;100052.47;30854745;28;97360;-76
2022/05/22 12:39:18;;;;;;;3.07;1.00;;;;;;;23.83;30.54;100052.69;30854049;28;97507;-78
2022/05/22 12:54:21;;;;;;;1.80;0.80;;;;;;;23.73;29.79;100028.13;30852264;28;97360;-76
2022/05/22 13:09:34;;;;;;;1.13;0.77;;;;;;;23.24;29.86;100021.78;30851588;28;96829;-77
2022/05/22 13:24:34;;;;;;;5.10;1.10;;;;;;;22.94;30.71;100008.72;30856768;28;96990;-77
2022/05/22 13:39:41;;;;;;;2.37;0.80;;;;;;;22.98;30.67;100016.09;30869854;28;97322;-74
2022/05/22 13:55:07;;;;;;;1.67;0.83;;;;;;;22.70;31.95;100016.34;30868408;28;97452;-72
2022/05/22 14:10:09;;;;;;;4.80;1.00;;;;;;;22.35;32.20;100001.28;30866551;28;96749;-72
2022/05/22 14:25:12;;;;;;;3.43;0.83;;;;;;;22.62;31.05;99988.59;30864582;28;96790;-76
2022/05/22 14:40:17;;;;;;;1.93;0.73;;;;;;;22.22;31.02;99981.56;30863366;28;96812;-76
2022/05/22 14:55:40;;;;;;;2.63;0.80;;;;;;;21.93;30.43;99964.66;30873793;28;97325;-75
2022/05/22 15:10:42;;;;;;;4.83;0.90;;;;;;;21.02;31.34;99946.75;30873048;28;96636;-72
2022/05/22 15:25:46;;;;;;;2.87;0.80;;;;;;;21.23;32.75;99953.34;30859089;28;96648;-74
2022/05/22 15:40:48;;;;;;;3.20;0.70;;;;;;;21.35;32.26;99929.69;30858610;28;96785;-73
2022/05/22 15:55:48;;;;;;;2.30;0.80;;;;;;;21.34;32.67;99938.03;30855473;28;96759;-73
2022/05/22 16:10:49;;;;;;;1.48;0.75;;;;;;;20.88;34.19;99951.69;30853856;28;101911;-72
2022/05/22 16:25:49;;;;;;;4.38;1.30;;;;;;;20.14;37.14;99957.84;30853294;28;96682;-72
2022/05/22 16:40:49;;;;;;;5.35;1.33;;;;;;;19.43;39.57;99958.69;30851903;28;100706;-71
2022/05/22 16:55:52;;;;;;;3.70;1.17;;;;;;;18.97;41.65;99971.09;30852232;28;96690;-77
2022/05/22 17:10:53;;;;;;;4.30;1.33;;;;;;;18.58;42.41;99980.31;30871547;28;96693;-73
2022/05/22 17:25:55;;;;;;;4.85;1.67;;;;;;;18.21;44.07;99969.59;30869982;28;97488;-73
2022/05/22 17:40:55;;;;;;;1.70;1.30;;;;;;;17.92;44.77;99963.91;30868804;28;96609;-71
2022/05/22 17:55:56;;;;;;;2.45;1.42;;;;;;;17.35;46.62;99969.41;30867126;28;96986;-76
2022/05/22 18:26:27;;;;;;;6.20;1.90;;;;;;;16.90;48.14;99986.50;30866788;28;97072;-80
2022/05/22 18:41:28;;;;;;;4.77;2.40;;;;;;;15.97;50.02;99997.66;30864789;28;96659;-70
2022/05/22 18:56:33;;;;;;;5.30;2.07;;;;;;;15.38;51.83;100010.91;30861653;28;96734;-74
2022/05/22 19:11:34;;;;;;;7.90;2.40;;;;;;;15.33;52.51;100018.75;30860792;28;96819;-70
2022/05/22 19:26:37;;;;;;;3.33;1.97;;;;;;;15.26;52.84;100028.66;30858364;28;96908;-69
2022/05/22 20:12:22;;;;;;;6.33;2.17;;;;;;;15.04;53.73;100031.50;30896611;28;96698;-68
2022/05/22 20:27:22;;;;;;;4.18;2.10;;;;;;;14.92;54.00;100035.81;31011836;28;106171;-70
2022/05/22 20:42:23;;;;;;;3.42;1.77;;;;;;;14.84;53.85;100031.44;30970822;28;97278;-69
2022/05/22 20:57:23;;;;;;;5.38;2.00;;;;;;;14.43;54.83;100034.97;30973342;28;97125;-69
2022/05/22 21:12:23;;;;;;;5.00;1.80;;;;;;;13.74;56.53;100026.75;30972227;28;96832;-69
2022/05/22 21:42:45;;;;;;;5.57;2.90;;;;;;;13.08;59.08;100032.31;30970715;28;96683;-70
2022/05/22 21:57:48;;;;;;;6.07;2.67;;;;;;;12.93;59.60;100019.00;30993195;28;97296;-69
2022/05/22 22:12:48;;;;;;;5.30;2.27;;;;;;;12.56;61.02;100019.03;30991096;28;97167;-69
2022/05/22 22:27:49;;;;;;;6.18;2.60;;;;;;;12.17;62.57;100026.34;30989229;28;97537;-70
2022/05/22 22:42:49;;;;;;;4.53;2.53;;;;;;;11.90;63.77;100010.94;30988913;28;97130;-70
2022/05/22 22:58:05;;;;;;;5.80;2.92;;;;;;;11.66;64.28;100012.84;30987146;28;96845;-69
2022/05/22 23:13:09;;;;;;;3.93;2.87;;;;;;;11.34;65.86;99999.63;30985543;28;96626;-70
2022/05/22 23:28:11;;;;;;;6.00;3.60;;;;;;;11.13;66.91;99992.28;30984110;28;97603;-71
2022/05/22 23:43:11;;;;;;;6.10;3.20;;;;;;;10.84;68.29;99998.34;30982179;28;97322;-69
2022/05/22 23:58:12;;;;;;;6.72;3.47;;;;;;;10.62;69.03;99999.97;30981512;28;97566;-69
